KAFF/AFF METAR and TAF weather

Enter ICAO airport designator
Station Type Date Time Source
KAFF METAR 2021/01/26 19:56 UTC NOAA

KAFF 261956Z 18007KT 1 1/2SM -SN BR FEW002 OVC009 M09/M11 A2967 RMK AO2A SLP108 T10861107


Station Type Date Time Source
KAFF Decoded METAR 2021/01/26 19:56 UTC NOAA

Air Force Academy, CO, United States (KAFF) 38-58N 104-49W 1999M
Jan 26, 2021 - 02:56 PM EST / 2021.01.26 1956 UTC
Wind: from the S (180 degrees) at 8 MPH (7 KT):0
Visibility: 1 1/2 mile(s):0
Sky conditions: overcast
Weather: light snow; mist
Temperature: 16.5 F (-8.6 C)
Windchill: 6 F (-14 C):1
Dew Point: 12.7 F (-10.7 C)
Relative Humidity: 84%
Pressure (altimeter): 29.67 in. Hg (1004 hPa)
ob: KAFF 261956Z 18007KT 1 1/2SM -SN BR FEW002 OVC009 M09/M11 A2967 RMK AO2A SLP108 T10861107
cycle: 20

Station Type Date Time Source
KAFF TAF 2021/01/26 20:33 UTC NOAA

TAF KAFF 252000Z 2520/2702 36010G15KT 9999 SCT038 SCT240 510009 QNH2952INS
BECMG 2520/2521 03009KT 9999 VCSH FEW023 BKN035 BKN120 610357 QNH2948INS WND 350V120
BECMG 2522/2523 05009KT 9000 -SHSN SCT010 BKN025 OVC120 610258 QNH2946INS
BECMG 2601/2602 09009KT 1600 -SN BR BKN006 BKN020 620069 QNH2948INS
BECMG 2604/2605 14009KT 3200 -SN BR OVC002 620029 QNH2953INS
BECMG 2616/2617 17012KT 1600 -SN BR SCT002 BKN009 OVC025 620099 QNH2960INS
BECMG 2620/2621 18009KT 4000 -SN BR SCT002 OVC005 620059 QNH2963INS TX01/2521Z TNM07/2611Z LAST NO
AMDS AFT 2600 NEXT 2612

Example: see airport list